Hauptseite
METAR-TAF:

METAR-TAF

Flughäfen :

Bohrplattform

A12-cpp, Niederlande

Breite: 55-23-57N, Länge: 3-48-37E, Höhe: 33 m

Beobachtung

Neuester Wetterbericht von vor 30 Minuten, um 03:25 UTC
Wind 38 kt aus West, variierte zwischen West/Südwest und Nordwest
Temperatur 12°C
Luftfeuchtigkeit 76%
Luftdruck 1018 hPa
Sichtweite 10 km oder mehr

METAR: EHAK 230325Z AUTO 27038KT 250V310 9999 SCT037/// 12/08 Q1018 W///H///

Zeit: 05:55 (03:55 UTC)


TAF: fehlend

Wetterbeobachtungen und Prognosen von mehr als 4000 Flughäfen (METAR und TAF Bericht).

Die verfügbaren Stationen werden durch gelbe und rote Markierungen auf der Karte dargestellt.

Führen Sie die Maus auf sie, um den Namen der Station zu sehen.

Darauf klicken, um die Beobachtung von Wetterbeobachtungen und Prognosen zu sehen.

Um die Karte zu ändern : klicken Sie auf den grünen Tasten mit einem schwarzen Kreuz Zum Vergrößern, auf den grünen Button mit einem Gedankenstrich zu verkleinern, oder auf die grünen Pfeile für benachbarte Karten.


METAR-TAF: